Time;durP1;ratioP1;P1;durP2;ratioP2;P2;SDS_P1;SDS_P2;PMS_P1;PMS_P2;Temp;Humidity;BMP_temperature;BMP_pressure;BME280_temperature;BME280_humidity;BME280_pressure;Samples;Min_cycle;Max_cycle;Signal;HPM_P1;HPM_P2
2023/04/29 00:00:48;;;;;;;43.33;16.00;;;12.70;95.20;;;;;;5112836;28;20024;-74
2023/04/29 00:03:13;;;;;;;37.65;15.82;;;12.60;95.30;;;;;;5113854;28;20032;-74
2023/04/29 00:05:39;;;;;;;39.17;16.33;;;12.60;95.40;;;;;;5112694;28;20028;-74
2023/04/29 00:08:05;;;;;;;41.25;16.58;;;12.60;95.20;;;;;;5112809;28;20043;-74
2023/04/29 00:10:30;;;;;;;42.50;17.60;;;12.60;95.20;;;;;;5113753;28;20043;-74
2023/04/29 00:12:56;;;;;;;42.75;18.02;;;12.50;95.20;;;;;;5078929;28;20054;-74
2023/04/29 00:15:21;;;;;;;44.60;18.63;;;12.50;95.10;;;;;;5112454;28;20073;-74
2023/04/29 00:17:47;;;;;;;40.05;16.85;;;12.40;95.20;;;;;;5113556;28;20035;-74
2023/04/29 00:20:13;;;;;;;43.03;18.35;;;12.50;95.40;;;;;;5112557;28;20028;-74
2023/04/29 00:22:39;;;;;;;44.67;18.17;;;12.40;95.30;;;;;;5112549;28;20024;-74
2023/04/29 00:25:05;;;;;;;40.90;19.08;;;12.40;95.30;;;;;;5113462;28;20081;-74
2023/04/29 00:27:32;;;;;;;43.15;18.77;;;12.40;95.40;;;;;;5112284;28;20084;-74
2023/04/29 00:29:57;;;;;;;48.35;19.88;;;12.40;95.40;;;;;;5113396;28;20016;-74
2023/04/29 00:32:23;;;;;;;48.40;20.10;;;12.40;95.40;;;;;;5113339;28;20034;-74
2023/04/29 00:34:49;;;;;;;43.30;19.63;;;12.40;95.40;;;;;;5113337;28;20040;-74
2023/04/29 00:37:15;;;;;;;42.92;19.40;;;12.40;95.40;;;;;;5112323;28;20059;-74
2023/04/29 00:39:41;;;;;;;42.97;19.35;;;12.50;95.40;;;;;;5113387;28;20016;-74
2023/04/29 00:42:08;;;;;;;42.72;19.52;;;12.50;95.40;;;;;;5112387;28;20035;-74
2023/04/29 00:44:34;;;;;;;42.30;18.58;;;12.50;95.20;;;;;;5112383;28;20085;-75
2023/04/29 00:46:59;;;;;;;43.15;18.70;;;12.50;95.10;;;;;;5113267;28;20076;-74
2023/04/29 00:49:26;;;;;;;34.45;16.60;;;12.50;95.10;;;;;;5113234;28;20032;-74
2023/04/29 00:51:55;;;;;;;38.70;17.40;;;12.50;95.00;;;;;;5095372;28;20031;-74
2023/04/29 00:54:20;;;;;;;43.08;18.60;;;12.50;95.10;;;;;;5113215;28;20049;-74
2023/04/29 00:56:47;;;;;;;34.55;16.63;;;12.50;95.40;;;;;;5113211;28;20044;-75
2023/04/29 00:59:15;;;;;;;34.33;15.85;;;12.40;94.90;;;;;;5112215;28;20029;-74
2023/04/29 01:01:41;;;;;;;35.92;15.68;;;12.50;94.80;;;;;;5113238;28;20020;-75
2023/04/29 01:04:07;;;;;;;35.65;15.45;;;12.40;94.90;;;;;;5113127;28;20043;-74
2023/04/29 01:06:49;;;;;;;34.63;15.38;;;12.40;94.80;;;;;;5113139;28;20081;-74
2023/04/29 01:09:28;;;;;;;30.60;14.65;;;12.40;94.70;;;;;;5113299;28;20384;-74
2023/04/29 01:12:15;;;;;;;33.83;14.20;;;12.40;94.70;;;;;;5112059;28;20028;-74
2023/04/29 01:14:46;;;;;;;32.30;14.05;;;12.40;94.80;;;;;;5113016;28;20068;-74
2023/04/29 01:17:18;;;;;;;32.03;14.80;;;12.40;94.80;;;;;;5112049;28;20020;-74
2023/04/29 01:19:46;;;;;;;;;;;12.40;94.90;;;;;;5113494;28;20028;-74
2023/04/29 01:22:17;;;;;;;32.63;14.13;;;12.40;94.80;;;;;;5112971;28;20275;-74
2023/04/29 01:24:43;;;;;;;29.17;13.55;;;12.30;94.80;;;;;;5112109;28;20087;-74
2023/04/29 01:27:28;;;;;;;30.75;14.25;;;12.30;94.90;;;;;;5112929;28;20028;-74
2023/04/29 01:30:06;;;;;;;29.85;14.07;;;12.30;94.70;;;;;;5111887;28;20028;-74
2023/04/29 01:32:50;;;;;;;32.17;14.63;;;12.30;94.90;;;;;;5112959;28;20044;-74
2023/04/29 01:35:24;;;;;;;30.27;14.35;;;12.30;94.80;;;;;;5112814;28;20099;-75
2023/04/29 01:38:15;;;;;;;34.40;15.13;;;12.30;94.90;;;;;;5112972;28;20024;-74
2023/04/29 01:41:07;;;;;;;30.08;13.25;;;12.30;94.90;;;;;;5115279;28;20052;-74
2023/04/29 01:43:36;;;;;;;31.20;14.45;;;12.30;94.90;;;;;;5105478;28;20040;-74
2023/04/29 01:46:04;;;;;;;28.20;13.65;;;12.20;94.90;;;;;;5115430;28;20031;-74
2023/04/29 01:48:30;;;;;;;34.53;14.13;;;12.20;94.90;;;;;;5116282;28;20046;-74
2023/04/29 01:50:56;;;;;;;30.88;13.65;;;12.30;94.90;;;;;;5115266;28;20048;-74
2023/04/29 01:53:21;;;;;;;32.45;14.20;;;12.20;94.90;;;;;;5116135;28;20044;-74
2023/04/29 01:55:47;;;;;;;33.03;13.93;;;12.30;95.00;;;;;;5098327;28;20054;-74
2023/04/29 01:58:13;;;;;;;31.33;13.27;;;12.30;95.00;;;;;;5116167;28;20040;-74
2023/04/29 02:00:39;;;;;;;30.70;14.60;;;12.30;95.10;;;;;;5116038;28;20032;-74
2023/04/29 02:03:04;;;;;;;33.28;14.55;;;12.30;95.00;;;;;;5116021;28;20028;-74
2023/04/29 02:05:32;;;;;;;30.25;14.13;;;12.30;95.00;;;;;;5115074;28;20036;-74
2023/04/29 02:07:59;;;;;;;33.45;14.55;;;12.40;95.00;;;;;;5114951;28;20028;-74
2023/04/29 02:10:25;;;;;;;28.92;13.18;;;12.40;95.00;;;;;;5115872;28;20055;-74
2023/04/29 02:12:51;;;;;;;27.63;12.57;;;12.30;95.00;;;;;;5115930;28;20028;-74
2023/04/29 02:15:17;;;;;;;31.95;13.30;;;12.30;95.00;;;;;;5114690;28;20059;-74
2023/04/29 02:17:43;;;;;;;32.45;14.20;;;12.30;95.10;;;;;;5114815;28;20020;-74
2023/04/29 02:20:09;;;;;;;29.60;13.75;;;12.30;95.10;;;;;;5114822;28;20050;-74
2023/04/29 02:22:35;;;;;;;29.30;13.15;;;12.30;95.20;;;;;;5114705;28;20028;-74
2023/04/29 02:25:01;;;;;;;29.83;12.77;;;12.30;95.30;;;;;;5114560;28;20107;-74
2023/04/29 02:27:26;;;;;;;27.60;13.43;;;12.30;95.30;;;;;;5115553;28;20032;-75
2023/04/29 02:29:52;;;;;;;30.65;13.07;;;12.30;95.40;;;;;;5114653;28;20039;-74
2023/04/29 02:32:19;;;;;;;30.52;11.88;;;12.30;95.30;;;;;;5114390;28;20032;-74
2023/04/29 02:34:44;;;;;;;28.15;12.60;;;12.30;95.40;;;;;;5114312;28;20033;-75
2023/04/29 02:37:10;;;;;;;28.40;12.38;;;12.30;95.40;;;;;;5115382;28;20079;-74
2023/04/29 02:39:36;;;;;;;26.33;12.88;;;12.30;95.40;;;;;;5115318;28;20039;-74
2023/04/29 02:42:01;;;;;;;28.92;12.48;;;12.30;95.40;;;;;;5115292;28;20020;-74
2023/04/29 02:44:27;;;;;;;27.33;12.43;;;12.30;95.40;;;;;;5115234;28;20024;-74
2023/04/29 02:46:53;;;;;;;28.83;12.77;;;12.30;95.50;;;;;;5114201;28;20476;-74
2023/04/29 02:49:19;;;;;;;25.90;11.60;;;12.20;95.50;;;;;;5114199;28;20031;-74
2023/04/29 02:51:44;;;;;;;29.98;12.95;;;12.20;95.50;;;;;;5097050;28;20028;-74
2023/04/29 02:54:10;;;;;;;27.98;12.15;;;12.20;95.60;;;;;;5114046;28;20024;-74
2023/04/29 02:56:36;;;;;;;30.23;12.65;;;12.20;95.70;;;;;;5114111;28;20020;-74
2023/04/29 02:59:02;;;;;;;29.90;12.18;;;12.20;95.60;;;;;;5113838;28;20077;-74
2023/04/29 03:01:28;;;;;;;27.70;11.70;;;12.20;95.70;;;;;;5113962;28;20032;-75
2023/04/29 03:03:53;;;;;;;27.55;12.20;;;12.20;96.00;;;;;;5114880;28;20056;-74
2023/04/29 03:06:20;;;;;;;29.38;12.80;;;12.10;95.60;;;;;;5113864;28;20028;-75
2023/04/29 03:08:45;;;;;;;26.77;11.95;;;12.10;95.70;;;;;;5114874;28;20093;-74
2023/04/29 03:11:11;;;;;;;25.30;11.35;;;12.20;95.70;;;;;;5114670;28;20028;-74
2023/04/29 03:13:37;;;;;;;29.95;11.88;;;12.20;95.70;;;;;;5114340;28;20071;-74
2023/04/29 03:16:03;;;;;;;26.88;11.60;;;12.20;95.70;;;;;;5113662;28;20076;-74
2023/04/29 03:18:28;;;;;;;27.38;11.63;;;12.20;95.70;;;;;;5114570;28;20020;-74
2023/04/29 03:20:54;;;;;;;25.90;11.55;;;12.10;95.70;;;;;;5114537;28;20048;-74
2023/04/29 03:23:21;;;;;;;27.98;11.35;;;12.10;95.70;;;;;;5113503;28;20465;-74
2023/04/29 03:25:46;;;;;;;29.80;12.18;;;12.10;95.70;;;;;;5114438;28;20024;-74
2023/04/29 03:28:12;;;;;;;31.40;12.13;;;12.10;95.70;;;;;;5113483;28;20098;-74
2023/04/29 03:30:38;;;;;;;26.88;12.32;;;12.10;95.70;;;;;;5113280;28;20036;-73
2023/04/29 03:33:03;;;;;;;28.80;11.65;;;12.10;95.80;;;;;;5113254;28;20034;-74
2023/04/29 03:35:29;;;;;;;29.42;11.20;;;12.10;95.80;;;;;;5114151;28;20077;-74
2023/04/29 03:37:54;;;;;;;29.92;12.13;;;12.10;95.80;;;;;;5114221;28;20039;-74
2023/04/29 03:40:20;;;;;;;29.33;11.93;;;12.10;95.80;;;;;;5114182;28;20091;-74
2023/04/29 03:42:46;;;;;;;30.77;11.68;;;12.10;95.80;;;;;;5113244;28;20054;-74
2023/04/29 03:45:13;;;;;;;30.98;11.50;;;12.10;95.80;;;;;;5114069;28;20071;-74
2023/04/29 03:47:39;;;;;;;30.02;12.00;;;12.00;95.70;;;;;;5114071;28;20028;-74
2023/04/29 03:50:06;;;;;;;28.63;11.45;;;12.00;95.70;;;;;;5112804;28;20092;-74
2023/04/29 03:52:35;;;;;;;27.77;11.98;;;12.00;95.90;;;;;;5096209;28;20039;-74
2023/04/29 03:55:01;;;;;;;27.65;12.32;;;12.00;95.90;;;;;;5113067;28;20020;-74
2023/04/29 03:57:27;;;;;;;27.77;11.55;;;12.00;95.90;;;;;;5113868;28;20031;-74
2023/04/29 03:59:52;;;;;;;28.20;12.05;;;12.00;95.90;;;;;;5113790;28;20032;-74
2023/04/29 04:02:18;;;;;;;25.23;11.10;;;12.00;95.90;;;;;;5113284;28;20088;-74
2023/04/29 04:04:44;;;;;;;25.60;11.98;;;12.00;96.00;;;;;;5113768;28;20028;-74
2023/04/29 04:07:10;;;;;;;31.30;12.40;;;12.00;95.90;;;;;;5113711;28;20024;-74
2023/04/29 04:09:37;;;;;;;27.52;11.80;;;12.00;95.90;;;;;;5113741;28;20024;-75
2023/04/29 04:12:03;;;;;;;28.13;12.20;;;12.00;95.90;;;;;;5113585;28;20028;-74
2023/04/29 04:14:29;;;;;;;28.60;11.95;;;12.00;95.90;;;;;;5113466;28;20500;-74
2023/04/29 04:16:54;;;;;;;30.95;13.35;;;12.00;95.90;;;;;;5113620;28;20021;-74
2023/04/29 04:19:20;;;;;;;31.38;12.48;;;12.00;95.90;;;;;;5113640;28;20032;-74
2023/04/29 04:21:46;;;;;;;28.08;11.52;;;12.00;95.90;;;;;;5112487;28;20048;-74
2023/04/29 04:24:11;;;;;;;28.88;11.98;;;12.00;95.80;;;;;;5112486;28;20032;-74
2023/04/29 04:26:37;;;;;;;29.92;12.82;;;12.00;95.80;;;;;;5112558;28;20027;-74
2023/04/29 04:29:03;;;;;;;30.23;12.57;;;12.00;95.80;;;;;;5113468;28;20020;-74
2023/04/29 04:31:29;;;;;;;27.85;11.95;;;12.00;95.80;;;;;;5112444;28;20095;-75
2023/04/29 04:33:56;;;;;;;30.63;11.63;;;12.00;95.80;;;;;;5095442;28;20024;-74
2023/04/29 04:36:22;;;;;;;29.38;12.75;;;12.00;95.80;;;;;;5113402;28;20040;-74
2023/04/29 04:38:48;;;;;;;28.77;12.75;;;12.00;95.80;;;;;;5113394;28;20527;-74
2023/04/29 04:41:13;;;;;;;30.17;12.07;;;12.00;95.90;;;;;;5095575;28;20549;-74
2023/04/29 04:43:39;;;;;;;32.38;13.13;;;12.00;95.90;;;;;;5113354;28;20016;-74
2023/04/29 04:46:13;;;;;;;23.95;11.52;;;11.90;95.80;;;;;;5113353;28;20020;-74
2023/04/29 04:48:39;;;;;;;23.38;10.98;;;11.90;95.90;;;;;;5113433;28;20032;-74
2023/04/29 04:51:12;;;;;;;26.08;11.20;;;11.90;95.80;;;;;;5095410;28;20059;-74
2023/04/29 04:53:38;;;;;;;25.58;11.95;;;11.90;95.80;;;;;;5113208;28;20025;-74
2023/04/29 04:56:05;;;;;;;27.33;11.45;;;11.90;95.80;;;;;;5113235;28;20028;-74
2023/04/29 04:58:31;;;;;;;25.60;12.25;;;11.90;95.80;;;;;;5113197;28;20028;-74
2023/04/29 05:00:58;;;;;;;27.05;11.52;;;11.90;95.90;;;;;;5112237;28;20569;-74
2023/04/29 05:03:23;;;;;;;27.50;11.90;;;11.90;95.90;;;;;;5113162;28;20024;-74
2023/04/29 05:06:01;;;;;;;29.05;13.25;;;11.90;95.90;;;;;;5113218;28;20028;-74
2023/04/29 05:08:27;;;;;;;25.10;11.02;;;11.90;95.90;;;;;;5113156;28;20024;-74
2023/04/29 05:10:52;;;;;;;25.08;11.80;;;11.90;95.90;;;;;;5112077;28;20020;-74
2023/04/29 05:13:19;;;;;;;26.40;11.60;;;11.90;95.80;;;;;;5111763;28;20037;-76
2023/04/29 05:15:44;;;;;;;27.17;11.75;;;11.90;95.90;;;;;;5115562;28;20035;-74
2023/04/29 05:18:11;;;;;;;23.30;11.38;;;11.90;95.90;;;;;;5116923;28;20488;-74
2023/04/29 05:20:36;;;;;;;26.55;12.20;;;12.00;95.90;;;;;;5116886;28;20054;-74
2023/04/29 05:23:02;;;;;;;25.60;10.90;;;11.90;95.80;;;;;;5115844;28;20032;-74
2023/04/29 05:25:28;;;;;;;27.55;12.02;;;11.90;95.80;;;;;;5115900;28;20032;-74
2023/04/29 05:27:54;;;;;;;28.17;12.02;;;11.90;95.90;;;;;;5115848;28;20043;-75
2023/04/29 05:30:21;;;;;;;24.00;11.48;;;11.90;95.90;;;;;;5116815;28;20024;-74
2023/04/29 05:32:47;;;;;;;29.05;11.73;;;11.90;95.90;;;;;;5115530;28;20024;-74
2023/04/29 05:35:14;;;;;;;24.60;10.43;;;11.90;95.90;;;;;;5116591;28;20069;-73
2023/04/29 05:37:40;;;;;;;26.02;11.38;;;12.00;95.90;;;;;;5116568;28;20024;-74
2023/04/29 05:40:08;;;;;;;25.85;10.93;;;11.90;95.90;;;;;;5115517;28;20023;-74
2023/04/29 05:42:34;;;;;;;24.23;11.18;;;12.00;95.90;;;;;;5116523;28;20032;-74
2023/04/29 05:44:59;;;;;;;23.40;10.88;;;12.00;95.90;;;;;;5098636;28;20087;-74
2023/04/29 05:47:25;;;;;;;21.83;11.07;;;12.00;95.80;;;;;;5116320;28;20032;-74
2023/04/29 05:49:51;;;;;;;24.85;11.15;;;12.00;95.80;;;;;;5116468;28;20054;-74
2023/04/29 05:52:16;;;;;;;23.63;10.52;;;12.00;95.80;;;;;;5116194;28;20036;-74
2023/04/29 05:54:42;;;;;;;24.70;11.02;;;12.00;95.70;;;;;;5116231;28;20040;-74
2023/04/29 05:57:08;;;;;;;22.80;10.88;;;12.00;95.70;;;;;;5115087;28;20472;-74
2023/04/29 05:59:33;;;;;;;24.70;10.95;;;12.00;95.70;;;;;;5098267;28;20020;-74
2023/04/29 06:01:59;;;;;;;23.35;11.38;;;12.00;95.70;;;;;;5116069;28;20056;-74
2023/04/29 06:04:26;;;;;;;25.38;10.93;;;12.00;95.70;;;;;;5115025;28;20064;-74
2023/04/29 06:06:55;;;;;;;23.52;11.23;;;12.00;95.70;;;;;;5115020;28;20020;-74
2023/04/29 06:09:21;;;;;;;24.77;10.35;;;12.00;95.70;;;;;;5114923;28;20024;-74
2023/04/29 06:11:47;;;;;;;23.50;10.93;;;12.00;95.60;;;;;;5114866;28;20040;-75
2023/04/29 06:14:13;;;;;;;23.00;10.95;;;12.00;95.60;;;;;;5114465;28;20062;-74
2023/04/29 06:16:40;;;;;;;21.58;11.20;;;12.00;95.60;;;;;;5081275;28;20100;-74
2023/04/29 06:19:05;;;;;;;26.20;11.40;;;12.00;95.50;;;;;;5114774;28;20022;-74
2023/04/29 06:21:31;;;;;;;22.17;10.15;;;12.00;95.40;;;;;;5114740;28;20028;-74
2023/04/29 06:23:57;;;;;;;23.83;10.73;;;12.10;95.50;;;;;;5114782;28;20115;-75
2023/04/29 06:26:23;;;;;;;24.13;10.23;;;12.10;95.50;;;;;;5097221;28;20028;-74
2023/04/29 06:28:49;;;;;;;24.65;10.73;;;12.10;95.40;;;;;;5114604;28;20021;-74
2023/04/29 06:31:15;;;;;;;25.83;10.32;;;12.10;95.40;;;;;;5115489;28;20028;-74
2023/04/29 06:33:41;;;;;;;20.92;10.63;;;12.10;95.40;;;;;;5115336;28;20038;-74
2023/04/29 06:36:07;;;;;;;23.58;10.70;;;12.20;95.30;;;;;;5114463;28;20076;-73
2023/04/29 06:38:32;;;;;;;21.42;11.25;;;12.20;95.20;;;;;;5115356;28;20032;-74
2023/04/29 06:40:59;;;;;;;22.10;10.52;;;12.20;95.20;;;;;;5114319;28;20031;-74
2023/04/29 06:43:31;;;;;;;20.55;10.55;;;12.20;95.20;;;;;;5097660;28;20028;-74
2023/04/29 06:45:57;;;;;;;22.73;10.00;;;12.20;95.10;;;;;;5115217;28;20435;-74
2023/04/29 06:48:22;;;;;;;22.80;10.45;;;12.20;95.00;;;;;;5115153;28;20028;-75
2023/04/29 06:50:52;;;;;;;21.98;10.55;;;12.20;95.00;;;;;;5115121;28;20054;-74
2023/04/29 06:53:18;;;;;;;24.08;10.00;;;12.20;95.00;;;;;;5097033;28;20030;-74
2023/04/29 06:55:45;;;;;;;17.58;9.60;;;12.20;95.00;;;;;;5114924;28;20073;-75
2023/04/29 06:58:12;;;;;;;19.60;9.68;;;12.20;95.00;;;;;;5097091;28;20028;-74
2023/04/29 07:00:38;;;;;;;22.38;10.50;;;12.30;95.00;;;;;;5097148;28;20020;-74
2023/04/29 07:03:04;;;;;;;21.63;10.18;;;12.30;95.00;;;;;;5114906;28;20043;-74
2023/04/29 07:05:29;;;;;;;21.67;10.65;;;12.30;95.30;;;;;;5114835;28;20025;-74
2023/04/29 07:07:55;;;;;;;26.17;11.35;;;12.30;94.90;;;;;;5113937;28;20432;-74
2023/04/29 07:10:21;;;;;;;20.25;10.50;;;12.30;94.90;;;;;;5114773;28;20054;-74
2023/04/29 07:12:46;;;;;;;23.02;10.73;;;12.40;95.00;;;;;;5113755;28;20032;-73
2023/04/29 07:15:12;;;;;;;22.75;12.13;;;12.40;94.90;;;;;;5114446;28;20101;-74
2023/04/29 07:17:37;;;;;;;22.77;10.23;;;12.40;94.90;;;;;;5113510;28;20036;-74
2023/04/29 07:20:04;;;;;;;19.75;11.07;;;12.40;94.80;;;;;;5113826;28;20031;-74
2023/04/29 07:22:30;;;;;;;21.00;10.70;;;12.40;94.80;;;;;;5096859;28;20024;-73
2023/04/29 07:24:55;;;;;;;19.20;10.40;;;12.40;94.80;;;;;;5113449;28;20035;-74
2023/04/29 07:27:22;;;;;;;22.63;10.68;;;12.40;94.80;;;;;;5096525;28;20040;-74
2023/04/29 07:29:48;;;;;;;22.85;11.05;;;12.40;94.80;;;;;;5114344;28;20089;-74
2023/04/29 07:32:14;;;;;;;19.27;10.80;;;12.50;94.80;;;;;;5113398;28;20032;-75
2023/04/29 07:34:40;;;;;;;22.05;11.13;;;12.40;94.70;;;;;;5114262;28;20031;-74
2023/04/29 07:37:05;;;;;;;21.48;11.27;;;12.50;94.70;;;;;;5113559;28;20024;-74
2023/04/29 07:39:31;;;;;;;21.13;10.70;;;12.50;94.70;;;;;;5113060;28;20062;-74
2023/04/29 07:41:58;;;;;;;24.55;11.10;;;12.50;95.10;;;;;;5113197;28;20031;-75
2023/04/29 07:44:24;;;;;;;25.65;11.70;;;12.50;94.70;;;;;;5114184;28;20126;-74
2023/04/29 07:46:50;;;;;;;21.50;10.30;;;12.50;94.70;;;;;;5114093;28;20032;-74
2023/04/29 07:49:15;;;;;;;20.73;11.18;;;12.60;94.70;;;;;;5114000;28;20049;-74
2023/04/29 07:51:41;;;;;;;21.05;11.55;;;12.60;94.60;;;;;;5113960;28;20024;-74
2023/04/29 07:54:07;;;;;;;22.90;11.38;;;12.60;94.60;;;;;;5112879;28;20031;-74
2023/04/29 07:56:33;;;;;;;21.95;11.07;;;12.60;94.20;;;;;;5113912;28;20047;-74
2023/04/29 07:59:00;;;;;;;23.35;12.00;;;12.70;94.20;;;;;;5113911;28;20024;-74
2023/04/29 08:01:26;;;;;;;22.30;10.82;;;12.70;94.20;;;;;;5113784;28;20019;-74
2023/04/29 08:03:51;;;;;;;22.13;11.13;;;12.70;94.20;;;;;;5113813;28;20020;-74
2023/04/29 08:06:19;;;;;;;24.27;11.75;;;12.70;94.20;;;;;;5096064;28;20040;-74
2023/04/29 08:08:45;;;;;;;22.13;11.63;;;12.70;94.10;;;;;;5112845;28;20039;-74
2023/04/29 08:11:18;;;;;;;21.38;11.32;;;12.70;94.10;;;;;;5095984;28;20024;-74
2023/04/29 08:13:44;;;;;;;19.35;10.52;;;12.70;94.10;;;;;;5095552;28;20048;-74
2023/04/29 08:16:10;;;;;;;21.98;11.65;;;12.80;94.10;;;;;;5113721;28;20020;-74
2023/04/29 08:18:36;;;;;;;22.13;11.25;;;12.80;94.10;;;;;;5113604;28;20024;-74
2023/04/29 08:21:02;;;;;;;19.90;10.80;;;12.90;94.10;;;;;;5112502;28;20024;-74
2023/04/29 08:23:28;;;;;;;20.10;11.13;;;12.90;94.00;;;;;;5112250;28;20032;-74
2023/04/29 08:25:54;;;;;;;20.52;11.68;;;12.90;93.90;;;;;;5112571;28;20031;-75
2023/04/29 08:28:21;;;;;;;20.73;11.40;;;13.00;93.80;;;;;;5113517;28;20027;-74
2023/04/29 08:30:47;;;;;;;25.25;10.75;;;13.10;93.80;;;;;;5113389;28;20024;-74
2023/04/29 08:33:13;;;;;;;20.75;10.70;;;13.10;93.80;;;;;;5112185;28;20032;-74
2023/04/29 08:35:39;;;;;;;18.80;10.32;;;13.20;93.70;;;;;;5078932;28;20032;-74
2023/04/29 08:38:05;;;;;;;25.38;11.48;;;13.30;93.80;;;;;;5112426;28;20492;-74
2023/04/29 08:40:34;;;;;;;19.80;10.05;;;13.40;94.00;;;;;;5113367;28;20025;-74
2023/04/29 08:43:01;;;;;;;28.58;11.32;;;13.40;93.70;;;;;;5112347;28;20030;-74
2023/04/29 08:45:28;;;;;;;24.88;10.52;;;13.50;93.60;;;;;;5113338;28;20020;-74
2023/04/29 08:47:56;;;;;;;21.98;11.30;;;13.60;93.60;;;;;;5112226;28;20028;-74
2023/04/29 08:50:23;;;;;;;21.02;10.30;;;13.60;93.50;;;;;;5116828;28;20019;-75
2023/04/29 08:52:49;;;;;;;18.92;11.50;;;13.60;93.30;;;;;;5117324;28;20028;-74
2023/04/29 08:55:15;;;;;;;25.75;10.68;;;13.70;93.10;;;;;;5117396;28;20124;-74
2023/04/29 08:57:42;;;;;;;19.85;9.88;;;13.70;93.10;;;;;;5117364;28;20024;-74
2023/04/29 09:00:09;;;;;;;19.67;10.32;;;13.70;92.70;;;;;;5117321;28;20028;-74
2023/04/29 09:02:43;;;;;;;26.30;10.43;;;13.70;92.30;;;;;;5117221;28;20032;-74
2023/04/29 09:05:12;;;;;;;18.95;9.90;;;13.70;92.30;;;;;;5117173;28;20035;-74
2023/04/29 09:07:38;;;;;;;20.88;9.90;;;13.80;92.40;;;;;;5116976;28;20031;-74
2023/04/29 09:10:06;;;;;;;21.17;10.45;;;13.80;92.20;;;;;;5117029;28;20059;-74
2023/04/29 09:12:32;;;;;;;22.08;9.73;;;13.90;92.20;;;;;;5117038;28;20473;-74
2023/04/29 09:14:57;;;;;;;22.02;9.57;;;14.00;92.10;;;;;;5098812;28;20051;-74
2023/04/29 09:17:46;;;;;;;22.25;10.52;;;13.90;91.80;;;;;;5116041;28;20536;-74
2023/04/29 09:20:20;;;;;;;24.25;9.73;;;14.00;91.70;;;;;;5117103;28;20031;-74
2023/04/29 09:22:49;;;;;;;30.65;12.38;;;14.00;91.80;;;;;;5116870;28;20027;-74
2023/04/29 09:25:15;;;;;;;20.80;9.68;;;14.10;91.90;;;;;;5115943;28;20053;-74
2023/04/29 09:27:41;;;;;;;23.38;10.27;;;14.10;91.70;;;;;;5116935;28;20032;-74
2023/04/29 09:30:08;;;;;;;20.65;10.32;;;14.20;91.60;;;;;;5115777;28;20085;-74
2023/04/29 09:32:34;;;;;;;18.33;9.32;;;14.30;91.70;;;;;;5116614;28;20091;-74
2023/04/29 09:35:26;;;;;;;18.13;9.82;;;14.20;91.20;;;;;;5116551;28;20023;-74
2023/04/29 09:37:55;;;;;;;18.20;9.15;;;14.30;90.30;;;;;;5116658;28;20016;-74
2023/04/29 09:40:34;;;;;;;15.63;9.05;;;14.30;90.50;;;;;;5115665;28;20054;-74
2023/04/29 09:43:00;;;;;;;18.02;9.32;;;14.40;90.90;;;;;;5116461;28;20085;-74
2023/04/29 09:45:40;;;;;;;15.95;8.80;;;14.60;91.10;;;;;;5116451;28;20054;-74
2023/04/29 09:48:07;;;;;;;17.90;9.20;;;14.70;90.70;;;;;;5115439;28;20106;-74
2023/04/29 09:50:37;;;;;;;16.27;8.93;;;14.70;90.40;;;;;;5116381;28;20074;-74
2023/04/29 09:53:05;;;;;;;15.43;8.13;;;14.80;90.60;;;;;;5115199;28;20055;-74
2023/04/29 09:55:31;;;;;;;14.13;7.47;;;14.90;90.50;;;;;;5116250;28;20013;-74
2023/04/29 09:57:57;;;;;;;16.20;9.20;;;15.00;90.60;;;;;;5116186;28;20032;-74
2023/04/29 10:00:24;;;;;;;17.38;9.68;;;15.10;90.00;;;;;;5097490;28;20048;-74
2023/04/29 10:02:52;;;;;;;12.70;7.88;;;15.20;89.80;;;;;;5116087;28;20075;-74
2023/04/29 10:05:20;;;;;;;19.80;9.15;;;15.30;89.50;;;;;;5116069;28;20054;-74
2023/04/29 10:07:50;;;;;;;18.77;9.20;;;15.40;89.80;;;;;;5115983;28;20047;-74
2023/04/29 10:10:17;;;;;;;15.55;8.23;;;15.60;89.70;;;;;;5116043;28;20028;-74
2023/04/29 10:12:43;;;;;;;16.23;8.43;;;15.60;88.30;;;;;;5115845;28;20024;-74
2023/04/29 10:15:35;;;;;;;15.77;7.97;;;15.60;86.90;;;;;;5114734;28;20048;-74
2023/04/29 10:18:20;;;;;;;13.50;7.43;;;15.60;86.10;;;;;;5114825;28;20023;-74
2023/04/29 10:20:47;;;;;;;13.98;7.80;;;15.50;86.70;;;;;;5115803;28;20079;-75
2023/04/29 10:23:14;;;;;;;14.93;7.65;;;15.40;87.20;;;;;;5115726;28;20024;-74
2023/04/29 10:25:42;;;;;;;13.10;7.65;;;15.40;87.30;;;;;;5115666;28;20056;-74
2023/04/29 10:28:17;;;;;;;14.30;7.18;;;15.40;87.30;;;;;;5114505;28;20050;-74
2023/04/29 10:30:50;;;;;;;13.80;7.88;;;15.30;86.40;;;;;;5115754;28;20028;-75
2023/04/29 10:33:17;;;;;;;16.25;8.02;;;15.30;86.40;;;;;;5115408;28;20031;-74
2023/04/29 10:35:46;;;;;;;17.33;7.18;;;15.30;86.60;;;;;;5115527;28;20028;-74
2023/04/29 10:38:28;;;;;;;16.05;7.63;;;15.20;86.30;;;;;;5114269;28;20087;-74
2023/04/29 10:40:57;;;;;;;14.88;8.00;;;15.20;86.10;;;;;;5115475;28;20028;-74
2023/04/29 10:43:26;;;;;;;13.50;7.45;;;15.20;86.80;;;;;;5115352;28;20016;-74
2023/04/29 10:46:23;;;;;;;12.10;7.03;;;15.20;86.90;;;;;;5115395;28;20020;-74
2023/04/29 10:48:54;;;;;;;12.95;6.82;;;15.20;86.90;;;;;;5115334;28;20039;-74
2023/04/29 10:51:44;;;;;;;14.80;7.55;;;15.20;87.00;;;;;;5114110;28;20038;-74
2023/04/29 10:54:12;;;;;;;15.15;7.80;;;15.20;86.10;;;;;;5101420;28;20095;-74
2023/04/29 10:56:43;;;;;;;11.98;6.68;;;15.20;86.20;;;;;;5115180;28;20020;-74
2023/04/29 10:59:11;;;;;;;15.77;7.35;;;15.10;85.90;;;;;;5115018;28;20024;-74
2023/04/29 11:01:48;;;;;;;10.63;6.20;;;15.10;85.90;;;;;;5114014;28;20028;-74
2023/04/29 11:04:15;;;;;;;11.35;7.18;;;15.00;85.90;;;;;;5114006;28;20121;-74
2023/04/29 11:06:44;;;;;;;11.40;6.65;;;15.00;85.90;;;;;;5114870;28;20044;-74
2023/04/29 11:09:14;;;;;;;11.77;7.45;;;15.00;86.30;;;;;;5114825;28;20024;-74
2023/04/29 11:11:44;;;;;;;12.80;7.57;;;15.10;86.60;;;;;;5115086;28;20020;-74
2023/04/29 11:14:11;;;;;;;13.00;6.43;;;15.10;86.40;;;;;;5114526;28;20051;-74
2023/04/29 11:16:37;;;;;;;10.02;6.55;;;15.10;86.40;;;;;;5114718;28;20035;-75
2023/04/29 11:19:04;;;;;;;15.20;7.28;;;15.10;86.30;;;;;;5114634;28;20032;-74
2023/04/29 11:21:31;;;;;;;10.70;6.70;;;15.10;86.10;;;;;;5114555;28;20016;-75
2023/04/29 11:23:57;;;;;;;10.68;6.60;;;15.10;85.70;;;;;;5113580;28;20044;-74
2023/04/29 11:26:23;;;;;;;11.70;6.32;;;15.00;85.60;;;;;;5113386;28;20035;-74
2023/04/29 11:28:51;;;;;;;12.70;6.63;;;15.00;85.60;;;;;;5114425;28;20035;-75
2023/04/29 11:31:16;;;;;;;11.10;6.18;;;15.00;85.10;;;;;;5113352;28;20051;-74
2023/04/29 11:33:42;;;;;;;11.43;6.03;;;15.00;85.30;;;;;;5113084;28;20043;-74
2023/04/29 11:36:10;;;;;;;9.73;6.28;;;15.00;85.40;;;;;;5114287;28;20024;-74
2023/04/29 11:38:39;;;;;;;11.88;6.45;;;15.00;85.30;;;;;;5114245;28;20023;-74
2023/04/29 11:41:05;;;;;;;10.60;6.28;;;14.90;85.00;;;;;;5113317;28;20032;-74
2023/04/29 11:43:31;;;;;;;10.95;6.63;;;14.90;85.30;;;;;;5114206;28;20032;-74
2023/04/29 11:45:56;;;;;;;12.68;7.00;;;15.00;85.70;;;;;;5112976;28;20032;-75
2023/04/29 11:48:24;;;;;;;11.77;7.20;;;15.00;85.70;;;;;;5114167;28;20024;-74
2023/04/29 11:50:52;;;;;;;11.02;6.03;;;15.00;85.50;;;;;;5114050;28;20032;-74
2023/04/29 11:53:23;;;;;;;10.20;5.85;;;15.10;85.60;;;;;;5113919;28;20088;-74
2023/04/29 11:55:49;;;;;;;10.50;6.70;;;15.10;85.60;;;;;;5113975;28;20040;-74
2023/04/29 11:58:15;;;;;;;10.95;6.05;;;15.10;84.40;;;;;;5113869;28;20401;-74
2023/04/29 12:00:41;;;;;;;10.07;5.68;;;15.20;84.80;;;;;;5113910;28;20024;-74
2023/04/29 12:03:21;;;;;;;9.43;6.00;;;15.20;84.80;;;;;;5113705;28;20024;-75
2023/04/29 12:05:50;;;;;;;11.27;5.90;;;15.30;84.90;;;;;;5113852;28;20175;-74
2023/04/29 12:08:20;;;;;;;10.27;6.10;;;15.40;85.40;;;;;;5112687;28;20118;-75
2023/04/29 12:10:49;;;;;;;10.10;5.63;;;15.40;84.90;;;;;;5112796;28;20051;-74
2023/04/29 12:13:19;;;;;;;10.52;5.32;;;15.50;84.40;;;;;;5113736;28;20032;-74
2023/04/29 12:15:46;;;;;;;10.93;5.72;;;15.50;84.30;;;;;;5113648;28;20166;-75
2023/04/29 12:18:13;;;;;;;8.60;5.43;;;15.60;84.60;;;;;;5112596;28;20050;-74
2023/04/29 12:20:39;;;;;;;8.52;5.50;;;15.70;84.50;;;;;;5112652;28;20024;-75
2023/04/29 12:23:11;;;;;;;9.55;5.55;;;15.70;84.30;;;;;;5113348;28;20024;-74
2023/04/29 12:25:36;;;;;;;10.90;5.95;;;15.80;83.70;;;;;;5112495;28;20058;-74
2023/04/29 12:28:03;;;;;;;10.45;5.88;;;15.90;83.50;;;;;;5113472;28;20028;-74
2023/04/29 12:30:29;;;;;;;10.18;6.10;;;15.90;82.70;;;;;;5113471;28;20024;-74
2023/04/29 12:32:54;;;;;;;11.05;6.13;;;16.00;82.60;;;;;;5112336;28;20104;-74